Airport Code: KEST // Unicom: 122.80 // Phone: 712-362-2761

Estherville Aviation

Welcome to Estherville Aviation. We are a small, family owned and operated fixed base operation (FBO) located at the Estherville, Iowa airport in Northwest Iowa.  The Estherville airport, KEST, is located 3 miles east of Estherville on highway 9, 15 miles east of the Iowa Great Lakes Region and Okoboji.

AirNav Information

Click the button above to visit Estherville Aviation’s AirNav profile.

Estherville Weather

ASOS

Frequency
Telephone

121.425
712-362-7250

Available data for KEST from the past 6 hours
ESTHERVILLE, IA
Metar
KEST 151052Z AUTO 25008KT 10SM OVC050 M03/M04 A2993 RMK AO2 SLP152 T10281039

10:52 UTC

Wind: 250° 8kt

Visibility: 10 SM

Sky: OVC 5000 ft

Temp: -3 deg C / 26.6 deg F

Dewpoint: -4 deg C / 24.8 deg F

Pressure: 29.93 inHg

Pireps (4)
RST UA /OV RST120030/TM 1014/FL060/TP C310/TA M12/IC LGT RIME
KMSP UA /OV MSP045020/TM 0930/FLDRGD/TP PC12/TA M04/IC MOD CLR 048-062
KMSP UA /OV MSP045020/TM 0930/FLDRGD/TP PC12/TA M04/IC MOD CLR 048-062
KMSP UA /OV 20NE MSP/TM 0930/FLDRGD/TP PC12/TA -4/IC MOD CLR 48-62

Estherville Fuel Prices

Fuel Type  Self-Serve Price
 JET A w/ Add

(30 Aug 2016)

 $3.50
100LL

(4 Oct 2017)

$4.40 Credit
$4.25 Cash

Aeronautical Charts

Authorized Service Centers

Estherville Aviation is an authorized service center for Cirrus, Rotax, Remos and Flight Design brands.